sensor_id;sensor_type;location;lat;lon;timestamp;pressure;altitude;pressure_sealevel;temperature;humidity
78407;BME280;67692;51.074;-1.790;2024-01-16T00:02:17;100792.25;;;-0.27;80.34
78407;BME280;67692;51.074;-1.790;2024-01-16T00:04:43;100793.97;;;-0.30;80.26
78407;BME280;67692;51.074;-1.790;2024-01-16T00:07:11;100784.69;;;-0.32;80.29
78407;BME280;67692;51.074;-1.790;2024-01-16T00:09:38;100776.41;;;-0.40;80.18
78407;BME280;67692;51.074;-1.790;2024-01-16T00:12:05;100772.00;;;-0.34;79.63
78407;BME280;67692;51.074;-1.790;2024-01-16T00:14:35;100762.81;;;-0.39;79.19
78407;BME280;67692;51.074;-1.790;2024-01-16T00:17:02;100766.25;;;-0.40;79.73
78407;BME280;67692;51.074;-1.790;2024-01-16T00:19:29;100763.78;;;-0.45;79.35
78407;BME280;67692;51.074;-1.790;2024-01-16T00:21:56;100762.94;;;-0.45;80.26
78407;BME280;67692;51.074;-1.790;2024-01-16T00:24:24;100759.56;;;-0.46;80.57
78407;BME280;67692;51.074;-1.790;2024-01-16T00:26:50;100763.75;;;-0.42;80.17
78407;BME280;67692;51.074;-1.790;2024-01-16T00:29:17;100758.81;;;-0.49;79.78
78407;BME280;67692;51.074;-1.790;2024-01-16T00:31:43;100765.75;;;-0.56;80.59
78407;BME280;67692;51.074;-1.790;2024-01-16T00:34:09;100766.63;;;-0.58;80.41
78407;BME280;67692;51.074;-1.790;2024-01-16T00:36:36;100764.28;;;-0.66;80.15
78407;BME280;67692;51.074;-1.790;2024-01-16T00:39:02;100764.41;;;-0.72;80.93
78407;BME280;67692;51.074;-1.790;2024-01-16T00:41:30;100764.47;;;-0.75;80.53
78407;BME280;67692;51.074;-1.790;2024-01-16T00:43:57;100767.75;;;-0.70;81.61
78407;BME280;67692;51.074;-1.790;2024-01-16T00:46:24;100756.78;;;-0.72;81.22
78407;BME280;67692;51.074;-1.790;2024-01-16T00:48:51;100761.03;;;-0.74;81.99
78407;BME280;67692;51.074;-1.790;2024-01-16T00:51:17;100765.25;;;-0.72;81.78
78407;BME280;67692;51.074;-1.790;2024-01-16T00:53:44;100768.47;;;-0.65;82.22
78407;BME280;67692;51.074;-1.790;2024-01-16T00:56:11;100768.56;;;-0.68;82.18
78407;BME280;67692;51.074;-1.790;2024-01-16T00:58:39;100762.56;;;-0.66;82.02
78407;BME280;67692;51.074;-1.790;2024-01-16T01:01:06;100759.94;;;-0.63;81.05
78407;BME280;67692;51.074;-1.790;2024-01-16T01:03:33;100764.19;;;-0.63;81.67
78407;BME280;67692;51.074;-1.790;2024-01-16T01:06:00;100757.28;;;-0.58;81.16
78407;BME280;67692;51.074;-1.790;2024-01-16T01:08:26;100765.75;;;-0.56;81.22
78407;BME280;67692;51.074;-1.790;2024-01-16T01:10:53;100757.34;;;-0.60;81.56
78407;BME280;67692;51.074;-1.790;2024-01-16T01:13:20;100757.53;;;-0.67;81.44
78407;BME280;67692;51.074;-1.790;2024-01-16T01:15:48;100754.97;;;-0.67;81.44
78407;BME280;67692;51.074;-1.790;2024-01-16T01:18:15;100754.03;;;-0.63;80.78
78407;BME280;67692;51.074;-1.790;2024-01-16T01:20:41;100762.59;;;-0.67;80.37
78407;BME280;67692;51.074;-1.790;2024-01-16T01:23:08;100754.94;;;-0.66;80.57
78407;BME280;67692;51.074;-1.790;2024-01-16T01:25:35;100756.69;;;-0.68;80.80
78407;BME280;67692;51.074;-1.790;2024-01-16T01:28:01;100755.84;;;-0.68;81.67
78407;BME280;67692;51.074;-1.790;2024-01-16T01:30:28;100750.75;;;-0.68;81.83
78407;BME280;67692;51.074;-1.790;2024-01-16T01:32:56;100751.50;;;-0.63;81.26
78407;BME280;67692;51.074;-1.790;2024-01-16T01:35:23;100750.75;;;-0.68;81.61
78407;BME280;67692;51.074;-1.790;2024-01-16T01:37:49;100743.22;;;-0.73;81.17
78407;BME280;67692;51.074;-1.790;2024-01-16T01:40:16;100741.47;;;-0.69;81.35
78407;BME280;67692;51.074;-1.790;2024-01-16T01:42:42;100744.03;;;-0.71;81.05
78407;BME280;67692;51.074;-1.790;2024-01-16T01:45:10;100744.09;;;-0.74;81.52
78407;BME280;67692;51.074;-1.790;2024-01-16T01:47:37;100738.13;;;-0.73;82.01
78407;BME280;67692;51.074;-1.790;2024-01-16T01:50:06;100744.09;;;-0.74;81.70
78407;BME280;67692;51.074;-1.790;2024-01-16T01:52:34;100740.78;;;-0.77;81.97
78407;BME280;67692;51.074;-1.790;2024-01-16T01:55:02;100739.06;;;-0.77;81.63
78407;BME280;67692;51.074;-1.790;2024-01-16T01:57:32;100740.78;;;-0.77;81.05
78407;BME280;67692;51.074;-1.790;2024-01-16T02:00:00;100739.25;;;-0.84;81.20
78407;BME280;67692;51.074;-1.790;2024-01-16T02:02:26;100734.84;;;-0.78;81.99
78407;BME280;67692;51.074;-1.790;2024-01-16T02:04:53;100735.03;;;-0.87;82.51
78407;BME280;67692;51.074;-1.790;2024-01-16T02:07:22;100733.25;;;-0.82;82.53
78407;BME280;67692;51.074;-1.790;2024-01-16T02:09:49;100732.28;;;-0.76;82.79
78407;BME280;67692;51.074;-1.790;2024-01-16T02:12:16;100733.91;;;-0.72;82.40
78407;BME280;67692;51.074;-1.790;2024-01-16T02:14:43;100734.81;;;-0.76;81.64
78407;BME280;67692;51.074;-1.790;2024-01-16T02:17:10;100729.66;;;-0.73;81.99
78407;BME280;67692;51.074;-1.790;2024-01-16T02:19:36;100735.78;;;-0.80;81.11
78407;BME280;67692;51.074;-1.790;2024-01-16T02:22:05;100742.53;;;-0.79;80.83
78407;BME280;67692;51.074;-1.790;2024-01-16T02:24:35;100732.44;;;-0.82;81.62
78407;BME280;67692;51.074;-1.790;2024-01-16T02:27:02;100735.91;;;-0.86;81.44
78407;BME280;67692;51.074;-1.790;2024-01-16T02:29:29;100734.22;;;-0.87;82.20
78407;BME280;67692;51.074;-1.790;2024-01-16T02:31:56;100741.09;;;-0.93;81.64
78407;BME280;67692;51.074;-1.790;2024-01-16T02:34:22;100740.19;;;-0.90;81.71
78407;BME280;67692;51.074;-1.790;2024-01-16T02:36:49;100743.69;;;-0.94;82.12
78407;BME280;67692;51.074;-1.790;2024-01-16T02:39:16;100732.69;;;-0.95;82.70
78407;BME280;67692;51.074;-1.790;2024-01-16T02:41:44;100734.44;;;-0.97;82.56
78407;BME280;67692;51.074;-1.790;2024-01-16T02:44:11;100733.66;;;-1.00;82.89
78407;BME280;67692;51.074;-1.790;2024-01-16T02:46:37;100722.44;;;-0.92;82.83
78407;BME280;67692;51.074;-1.790;2024-01-16T02:49:05;100725.81;;;-0.91;82.84
78407;BME280;67692;51.074;-1.790;2024-01-16T02:51:32;100718.06;;;-0.83;83.02
78407;BME280;67692;51.074;-1.790;2024-01-16T02:53:59;100714.66;;;-0.84;82.95
78407;BME280;67692;51.074;-1.790;2024-01-16T02:56:25;100715.44;;;-0.80;82.74
78407;BME280;67692;51.074;-1.790;2024-01-16T02:58:54;100702.69;;;-0.79;82.83
78407;BME280;67692;51.074;-1.790;2024-01-16T03:01:20;100711.19;;;-0.80;83.44
78407;BME280;67692;51.074;-1.790;2024-01-16T03:03:47;100711.16;;;-0.78;83.43
78407;BME280;67692;51.074;-1.790;2024-01-16T03:06:21;100706.88;;;-0.76;83.01
78407;BME280;67692;51.074;-1.790;2024-01-16T03:08:48;100703.34;;;-0.69;82.71
78407;BME280;67692;51.074;-1.790;2024-01-16T03:11:15;100703.25;;;-0.66;82.67
78407;BME280;67692;51.074;-1.790;2024-01-16T03:13:42;100694.75;;;-0.65;81.90
78407;BME280;67692;51.074;-1.790;2024-01-16T03:16:10;100694.91;;;-0.71;81.29
78407;BME280;67692;51.074;-1.790;2024-01-16T03:18:37;100701.63;;;-0.69;81.91
78407;BME280;67692;51.074;-1.790;2024-01-16T03:21:04;100690.78;;;-0.77;82.60
78407;BME280;67692;51.074;-1.790;2024-01-16T03:23:31;100700.16;;;-0.79;82.23
78407;BME280;67692;51.074;-1.790;2024-01-16T03:25:58;100693.34;;;-0.78;81.82
78407;BME280;67692;51.074;-1.790;2024-01-16T03:28:24;100683.19;;;-0.78;81.96
78407;BME280;67692;51.074;-1.790;2024-01-16T03:30:51;100679.78;;;-0.77;81.89
78407;BME280;67692;51.074;-1.790;2024-01-16T03:33:19;100677.22;;;-0.77;82.12
78407;BME280;67692;51.074;-1.790;2024-01-16T03:35:45;100676.44;;;-0.79;82.04
78407;BME280;67692;51.074;-1.790;2024-01-16T03:38:12;100677.41;;;-0.85;81.04
78407;BME280;67692;51.074;-1.790;2024-01-16T03:40:39;100666.41;;;-0.87;80.86
78407;BME280;67692;51.074;-1.790;2024-01-16T03:43:06;100659.84;;;-0.96;81.06
78407;BME280;67692;51.074;-1.790;2024-01-16T03:45:33;100661.53;;;-0.95;81.20
78407;BME280;67692;51.074;-1.790;2024-01-16T03:47:59;100667.22;;;-0.83;81.58
78407;BME280;67692;51.074;-1.790;2024-01-16T03:50:27;100669.03;;;-0.90;82.22
78407;BME280;67692;51.074;-1.790;2024-01-16T03:52:54;100659.72;;;-0.90;82.27
78407;BME280;67692;51.074;-1.790;2024-01-16T03:55:21;100664.06;;;-0.95;81.50
78407;BME280;67692;51.074;-1.790;2024-01-16T03:57:47;100649.69;;;-0.96;81.98
78407;BME280;67692;51.074;-1.790;2024-01-16T04:00:16;100657.44;;;-1.00;82.62
78407;BME280;67692;51.074;-1.790;2024-01-16T04:02:43;100653.09;;;-0.97;82.84
78407;BME280;67692;51.074;-1.790;2024-01-16T04:05:10;100653.19;;;-1.00;82.62
78407;BME280;67692;51.074;-1.790;2024-01-16T04:07:38;100643.94;;;-1.04;83.37
78407;BME280;67692;51.074;-1.790;2024-01-16T04:10:06;100638.94;;;-1.07;82.97
78407;BME280;67692;51.074;-1.790;2024-01-16T04:12:33;100644.69;;;-0.99;83.14
78407;BME280;67692;51.074;-1.790;2024-01-16T04:15:00;100648.09;;;-1.00;82.53
78407;BME280;67692;51.074;-1.790;2024-01-16T04:17:26;100643.88;;;-1.01;82.15
78407;BME280;67692;51.074;-1.790;2024-01-16T04:19:53;100640.56;;;-1.04;82.77
78407;BME280;67692;51.074;-1.790;2024-01-16T04:22:20;100644.00;;;-1.07;82.47
78407;BME280;67692;51.074;-1.790;2024-01-16T04:24:48;100635.59;;;-1.09;82.84
78407;BME280;67692;51.074;-1.790;2024-01-16T04:27:15;100641.53;;;-1.10;82.22
78407;BME280;67692;51.074;-1.790;2024-01-16T04:29:41;100634.00;;;-1.13;82.00
78407;BME280;67692;51.074;-1.790;2024-01-16T04:32:08;100627.19;;;-1.12;82.58
78407;BME280;67692;51.074;-1.790;2024-01-16T04:34:35;100615.41;;;-1.15;82.43
78407;BME280;67692;51.074;-1.790;2024-01-16T04:37:02;100618.78;;;-1.16;82.79
78407;BME280;67692;51.074;-1.790;2024-01-16T04:39:29;100609.56;;;-1.20;82.79
78407;BME280;67692;51.074;-1.790;2024-01-16T04:41:57;100603.72;;;-1.24;82.63
78407;BME280;67692;51.074;-1.790;2024-01-16T04:44:24;100604.38;;;-1.14;83.12
78407;BME280;67692;51.074;-1.790;2024-01-16T04:46:51;100607.00;;;-1.18;82.88
78407;BME280;67692;51.074;-1.790;2024-01-16T04:49:18;100609.53;;;-1.18;82.62
78407;BME280;67692;51.074;-1.790;2024-01-16T04:51:44;100606.97;;;-1.17;82.72
78407;BME280;67692;51.074;-1.790;2024-01-16T04:54:12;100611.25;;;-1.19;82.17
78407;BME280;67692;51.074;-1.790;2024-01-16T04:56:39;100607.84;;;-1.18;82.46
78407;BME280;67692;51.074;-1.790;2024-01-16T04:59:07;100603.59;;;-1.17;82.63
78407;BME280;67692;51.074;-1.790;2024-01-16T05:01:33;100601.94;;;-1.20;82.31
78407;BME280;67692;51.074;-1.790;2024-01-16T05:04:00;100596.16;;;-1.25;82.95
78407;BME280;67692;51.074;-1.790;2024-01-16T05:06:28;100588.56;;;-1.27;82.84
78407;BME280;67692;51.074;-1.790;2024-01-16T05:08:55;100586.19;;;-1.34;83.34
78407;BME280;67692;51.074;-1.790;2024-01-16T05:11:22;100589.53;;;-1.32;83.60
78407;BME280;67692;51.074;-1.790;2024-01-16T05:13:48;100591.25;;;-1.34;82.89
78407;BME280;67692;51.074;-1.790;2024-01-16T05:16:16;100591.25;;;-1.34;83.34
78407;BME280;67692;51.074;-1.790;2024-01-16T05:18:43;100592.06;;;-1.32;82.74
78407;BME280;67692;51.074;-1.790;2024-01-16T05:21:10;100589.66;;;-1.38;83.21
78407;BME280;67692;51.074;-1.790;2024-01-16T05:23:36;100591.22;;;-1.33;83.49
78407;BME280;67692;51.074;-1.790;2024-01-16T05:26:04;100594.75;;;-1.38;83.36
78407;BME280;67692;51.074;-1.790;2024-01-16T05:28:30;100588.91;;;-1.42;83.63
78407;BME280;67692;51.074;-1.790;2024-01-16T05:30:57;100583.09;;;-1.48;83.43
78407;BME280;67692;51.074;-1.790;2024-01-16T05:33:25;100584.78;;;-1.47;83.97
78407;BME280;67692;51.074;-1.790;2024-01-16T05:35:52;100578.03;;;-1.48;84.13
78407;BME280;67692;51.074;-1.790;2024-01-16T05:38:18;100579.78;;;-1.51;84.09
78407;BME280;67692;51.074;-1.790;2024-01-16T05:40:45;100578.16;;;-1.55;84.08
78407;BME280;67692;51.074;-1.790;2024-01-16T05:43:12;100574.69;;;-1.51;84.33
78407;BME280;67692;51.074;-1.790;2024-01-16T05:45:39;100569.63;;;-1.51;83.83
78407;BME280;67692;51.074;-1.790;2024-01-16T05:48:06;100575.75;;;-1.61;84.32
78407;BME280;67692;51.074;-1.790;2024-01-16T05:50:36;100572.31;;;-1.58;84.68
78407;BME280;67692;51.074;-1.790;2024-01-16T05:53:03;100566.50;;;-1.63;84.53
78407;BME280;67692;51.074;-1.790;2024-01-16T05:55:29;100560.59;;;-1.64;84.58
78407;BME280;67692;51.074;-1.790;2024-01-16T05:57:57;100555.47;;;-1.62;84.76
78407;BME280;67692;51.074;-1.790;2024-01-16T06:00:25;100549.44;;;-1.57;85.55
78407;BME280;67692;51.074;-1.790;2024-01-16T06:02:51;100553.66;;;-1.56;85.43
78407;BME280;67692;51.074;-1.790;2024-01-16T06:05:18;100549.44;;;-1.57;85.28
78407;BME280;67692;51.074;-1.790;2024-01-16T06:07:46;100541.06;;;-1.62;85.20
78407;BME280;67692;51.074;-1.790;2024-01-16T06:10:13;100546.03;;;-1.56;84.93
78407;BME280;67692;51.074;-1.790;2024-01-16T06:12:40;100542.75;;;-1.61;85.02
78407;BME280;67692;51.074;-1.790;2024-01-16T06:15:07;100538.63;;;-1.66;85.39
78407;BME280;67692;51.074;-1.790;2024-01-16T06:17:34;100542.81;;;-1.64;85.30
78407;BME280;67692;51.074;-1.790;2024-01-16T06:20:01;100541.28;;;-1.71;85.02
78407;BME280;67692;51.074;-1.790;2024-01-16T06:22:29;100544.69;;;-1.72;85.83
78407;BME280;67692;51.074;-1.790;2024-01-16T06:24:57;100542.88;;;-1.67;85.23
78407;BME280;67692;51.074;-1.790;2024-01-16T06:27:24;100539.47;;;-1.66;85.75
78407;BME280;67692;51.074;-1.790;2024-01-16T06:29:51;100533.50;;;-1.63;85.95
78407;BME280;67692;51.074;-1.790;2024-01-16T06:32:17;100531.78;;;-1.63;85.24
78407;BME280;67692;51.074;-1.790;2024-01-16T06:34:44;100528.59;;;-1.71;85.81
78407;BME280;67692;51.074;-1.790;2024-01-16T06:37:11;100531.16;;;-1.72;85.01
78407;BME280;67692;51.074;-1.790;2024-01-16T06:39:37;100521.03;;;-1.72;85.72
78407;BME280;67692;51.074;-1.790;2024-01-16T06:42:06;100521.03;;;-1.74;85.79
78407;BME280;67692;51.074;-1.790;2024-01-16T06:44:33;100526.97;;;-1.75;85.45
78407;BME280;67692;51.074;-1.790;2024-01-16T06:47:00;100527.13;;;-1.81;85.58
78407;BME280;67692;51.074;-1.790;2024-01-16T06:49:26;100526.16;;;-1.77;86.17
78407;BME280;67692;51.074;-1.790;2024-01-16T06:51:53;100523.56;;;-1.74;85.45
78407;BME280;67692;51.074;-1.790;2024-01-16T06:54:20;100522.53;;;-1.65;85.26
78407;BME280;67692;51.074;-1.790;2024-01-16T06:56:48;100527.66;;;-1.67;85.69
78407;BME280;67692;51.074;-1.790;2024-01-16T06:59:16;100535.09;;;-1.59;85.17
78407;BME280;67692;51.074;-1.790;2024-01-16T07:01:44;100529.25;;;-1.63;85.21
78407;BME280;67692;51.074;-1.790;2024-01-16T07:04:11;100534.28;;;-1.61;85.64
78407;BME280;67692;51.074;-1.790;2024-01-16T07:06:39;100530.25;;;-1.70;85.63
78407;BME280;67692;51.074;-1.790;2024-01-16T07:09:06;100534.50;;;-1.70;85.91
78407;BME280;67692;51.074;-1.790;2024-01-16T07:11:36;100533.72;;;-1.74;85.56
78407;BME280;67692;51.074;-1.790;2024-01-16T07:14:03;100527.84;;;-1.76;86.44
78407;BME280;67692;51.074;-1.790;2024-01-16T07:16:31;100523.50;;;-1.69;86.48
78407;BME280;67692;51.074;-1.790;2024-01-16T07:18:58;100521.81;;;-1.70;86.07
78407;BME280;67692;51.074;-1.790;2024-01-16T07:21:24;100509.09;;;-1.69;85.53
78407;BME280;67692;51.074;-1.790;2024-01-16T07:23:51;100508.34;;;-1.74;85.96
78407;BME280;67692;51.074;-1.790;2024-01-16T07:26:18;100499.84;;;-1.71;85.61
78407;BME280;67692;51.074;-1.790;2024-01-16T07:28:45;100495.81;;;-1.82;86.15
78407;BME280;67692;51.074;-1.790;2024-01-16T07:31:13;100502.69;;;-1.85;86.32
78407;BME280;67692;51.074;-1.790;2024-01-16T07:33:41;100502.59;;;-1.82;86.57
78407;BME280;67692;51.074;-1.790;2024-01-16T07:36:08;100492.38;;;-1.79;86.43
78407;BME280;67692;51.074;-1.790;2024-01-16T07:38:35;100497.53;;;-1.82;87.14
78407;BME280;67692;51.074;-1.790;2024-01-16T07:41:03;100489.88;;;-1.81;86.08
78407;BME280;67692;51.074;-1.790;2024-01-16T07:43:29;100490.81;;;-1.85;86.56
78407;BME280;67692;51.074;-1.790;2024-01-16T07:45:56;100495.09;;;-1.87;85.95
78407;BME280;67692;51.074;-1.790;2024-01-16T07:48:23;100484.19;;;-1.92;86.56
78407;BME280;67692;51.074;-1.790;2024-01-16T07:50:51;100483.47;;;-1.97;86.30
78407;BME280;67692;51.074;-1.790;2024-01-16T07:53:17;100488.44;;;-1.92;86.36
78407;BME280;67692;51.074;-1.790;2024-01-16T07:55:44;100475.75;;;-1.92;86.42
78407;BME280;67692;51.074;-1.790;2024-01-16T07:58:11;100482.75;;;-2.03;86.49
78407;BME280;67692;51.074;-1.790;2024-01-16T08:00:38;100479.41;;;-2.05;86.84
78407;BME280;67692;51.074;-1.790;2024-01-16T08:03:08;100476.75;;;-1.99;87.27
78407;BME280;67692;51.074;-1.790;2024-01-16T08:05:36;100481.03;;;-2.01;86.74
78407;BME280;67692;51.074;-1.790;2024-01-16T08:08:04;100479.19;;;-1.95;86.70
78407;BME280;67692;51.074;-1.790;2024-01-16T08:10:31;100474.22;;;-1.99;86.39
78407;BME280;67692;51.074;-1.790;2024-01-16T08:12:57;100475.06;;;-1.99;86.11
78407;BME280;67692;51.074;-1.790;2024-01-16T08:15:24;100479.88;;;-1.88;87.77
78407;BME280;67692;51.074;-1.790;2024-01-16T08:17:51;100481.63;;;-1.90;86.08
78407;BME280;67692;51.074;-1.790;2024-01-16T08:20:17;100479.88;;;-1.87;86.11
78407;BME280;67692;51.074;-1.790;2024-01-16T08:22:44;100487.50;;;-1.88;86.71
78407;BME280;67692;51.074;-1.790;2024-01-16T08:25:12;100482.41;;;-1.88;86.80
78407;BME280;67692;51.074;-1.790;2024-01-16T08:27:39;100484.97;;;-1.88;86.48
78407;BME280;67692;51.074;-1.790;2024-01-16T08:30:06;100485.00;;;-1.90;86.79
78407;BME280;67692;51.074;-1.790;2024-01-16T08:32:33;100488.56;;;-1.98;86.08
78407;BME280;67692;51.074;-1.790;2024-01-16T08:35:00;100482.63;;;-1.97;86.60
78407;BME280;67692;51.074;-1.790;2024-01-16T08:37:26;100470.88;;;-2.01;86.22
78407;BME280;67692;51.074;-1.790;2024-01-16T08:39:53;100479.28;;;-1.99;86.09
78407;BME280;67692;51.074;-1.790;2024-01-16T08:42:21;100482.63;;;-1.97;86.87
78407;BME280;67692;51.074;-1.790;2024-01-16T08:44:48;100472.47;;;-1.97;86.53
78407;BME280;67692;51.074;-1.790;2024-01-16T08:47:15;100469.81;;;-1.91;86.42
78407;BME280;67692;51.074;-1.790;2024-01-16T08:49:41;100465.53;;;-1.89;86.35
78407;BME280;67692;51.074;-1.790;2024-01-16T08:52:08;100471.53;;;-1.93;85.84
78407;BME280;67692;51.074;-1.790;2024-01-16T08:54:35;100468.19;;;-1.94;86.05
78407;BME280;67692;51.074;-1.790;2024-01-16T08:57:02;100470.75;;;-1.95;85.95
78407;BME280;67692;51.074;-1.790;2024-01-16T08:59:30;100463.03;;;-1.91;86.24
78407;BME280;67692;51.074;-1.790;2024-01-16T09:01:57;100459.63;;;-1.90;86.20
78407;BME280;67692;51.074;-1.790;2024-01-16T09:04:24;100459.59;;;-1.88;86.25
78407;BME280;67692;51.074;-1.790;2024-01-16T09:06:51;100453.66;;;-1.87;86.68
78407;BME280;67692;51.074;-1.790;2024-01-16T09:09:17;100465.34;;;-1.80;87.04
78407;BME280;67692;51.074;-1.790;2024-01-16T09:11:44;100468.03;;;-1.86;87.31
78407;BME280;67692;51.074;-1.790;2024-01-16T09:14:10;100462.84;;;-1.82;87.68
78407;BME280;67692;51.074;-1.790;2024-01-16T09:16:39;100467.78;;;-1.75;87.77
78407;BME280;67692;51.074;-1.790;2024-01-16T09:19:06;100465.06;;;-1.68;87.91
78407;BME280;67692;51.074;-1.790;2024-01-16T09:21:33;100461.50;;;-1.61;88.79
78407;BME280;67692;51.074;-1.790;2024-01-16T09:23:59;100462.31;;;-1.57;88.48
78407;BME280;67692;51.074;-1.790;2024-01-16T09:26:26;100462.94;;;-1.49;88.10
78407;BME280;67692;51.074;-1.790;2024-01-16T09:28:53;100450.22;;;-1.47;87.52
78407;BME280;67692;51.074;-1.790;2024-01-16T09:31:19;100451.78;;;-1.42;88.04
78407;BME280;67692;51.074;-1.790;2024-01-16T09:33:47;100444.94;;;-1.38;88.02
78407;BME280;67692;51.074;-1.790;2024-01-16T09:36:14;100442.47;;;-1.41;87.60
78407;BME280;67692;51.074;-1.790;2024-01-16T09:38:41;100440.84;;;-1.45;87.63
78407;BME280;67692;51.074;-1.790;2024-01-16T09:41:07;100442.56;;;-1.46;87.97
78407;BME280;67692;51.074;-1.790;2024-01-16T09:43:34;100439.00;;;-1.39;87.80
78407;BME280;67692;51.074;-1.790;2024-01-16T09:46:04;100426.13;;;-1.31;88.46
78407;BME280;67692;51.074;-1.790;2024-01-16T09:48:32;100426.84;;;-1.26;87.89
78407;BME280;67692;51.074;-1.790;2024-01-16T09:51:00;100428.28;;;-1.16;88.19
78407;BME280;67692;51.074;-1.790;2024-01-16T09:53:27;100428.84;;;-1.05;87.46
78407;BME280;67692;51.074;-1.790;2024-01-16T09:55:54;100429.50;;;-0.97;86.72
78407;BME280;67692;51.074;-1.790;2024-01-16T09:58:25;100423.06;;;-1.10;86.74
78407;BME280;67692;51.074;-1.790;2024-01-16T10:00:54;100427.97;;;-1.04;87.31
78407;BME280;67692;51.074;-1.790;2024-01-16T10:03:21;100418.75;;;-1.08;87.58
78407;BME280;67692;51.074;-1.790;2024-01-16T10:05:48;100418.72;;;-1.06;86.84
78407;BME280;67692;51.074;-1.790;2024-01-16T10:08:16;100414.38;;;-1.03;87.61
78407;BME280;67692;51.074;-1.790;2024-01-16T10:10:47;100422.25;;;-0.79;87.02
78407;BME280;67692;51.074;-1.790;2024-01-16T10:13:14;100420.88;;;-0.60;85.63
78407;BME280;67692;51.074;-1.790;2024-01-16T10:15:41;100412.41;;;-0.61;85.50
78407;BME280;67692;51.074;-1.790;2024-01-16T10:18:21;100420.22;;;-0.67;84.70
78407;BME280;67692;51.074;-1.790;2024-01-16T10:20:48;100415.94;;;-0.65;85.29
78407;BME280;67692;51.074;-1.790;2024-01-16T10:23:22;100426.06;;;-0.63;85.01
78407;BME280;67692;51.074;-1.790;2024-01-16T10:26:04;100422.91;;;-0.73;85.99
78407;BME280;67692;51.074;-1.790;2024-01-16T10:28:31;100416.09;;;-0.71;85.71
78407;BME280;67692;51.074;-1.790;2024-01-16T10:31:01;100421.00;;;-0.65;85.68
78407;BME280;67692;51.074;-1.790;2024-01-16T10:33:28;100423.41;;;-0.60;84.67
78407;BME280;67692;51.074;-1.790;2024-01-16T10:36:07;100419.94;;;-0.56;84.56
78407;BME280;67692;51.074;-1.790;2024-01-16T10:38:35;100409.50;;;-0.47;84.27
78407;BME280;67692;51.074;-1.790;2024-01-16T10:41:10;100407.56;;;-0.39;84.32
78407;BME280;67692;51.074;-1.790;2024-01-16T10:43:38;100412.44;;;-0.31;84.54
78407;BME280;67692;51.074;-1.790;2024-01-16T10:46:13;100412.47;;;-0.33;85.57
78407;BME280;67692;51.074;-1.790;2024-01-16T10:48:42;100413.16;;;-0.26;86.05
78407;BME280;67692;51.074;-1.790;2024-01-16T10:51:11;100418.88;;;-0.19;85.83
78407;BME280;67692;51.074;-1.790;2024-01-16T10:53:42;100418.88;;;-0.19;86.16
78407;BME280;67692;51.074;-1.790;2024-01-16T10:56:10;100400.81;;;-0.10;85.88
78407;BME280;67692;51.074;-1.790;2024-01-16T10:58:41;100397.19;;;-0.03;85.90
78407;BME280;67692;51.074;-1.790;2024-01-16T11:01:11;100399.41;;;0.08;85.48
78407;BME280;67692;51.074;-1.790;2024-01-16T11:03:40;100389.97;;;0.11;85.49
78407;BME280;67692;51.074;-1.790;2024-01-16T11:06:10;100389.03;;;0.14;85.66
78407;BME280;67692;51.074;-1.790;2024-01-16T11:08:37;100369.66;;;0.10;85.82
78407;BME280;67692;51.074;-1.790;2024-01-16T11:11:05;100370.38;;;0.13;86.60
78407;BME280;67692;51.074;-1.790;2024-01-16T11:13:34;100360.13;;;0.16;86.33
78407;BME280;67692;51.074;-1.790;2024-01-16T11:16:02;100358.16;;;0.24;86.37
78407;BME280;67692;51.074;-1.790;2024-01-16T11:18:30;100360.25;;;0.38;85.57
78407;BME280;67692;51.074;-1.790;2024-01-16T11:20:58;100358.53;;;0.39;84.89
78407;BME280;67692;51.074;-1.790;2024-01-16T11:23:25;100354.28;;;0.39;85.10
78407;BME280;67692;51.074;-1.790;2024-01-16T11:25:52;100342.97;;;0.48;84.55
78407;BME280;67692;51.074;-1.790;2024-01-16T11:28:20;100344.47;;;0.53;84.01
78407;BME280;67692;51.074;-1.790;2024-01-16T11:30:46;100340.09;;;0.57;83.87
78407;BME280;67692;51.074;-1.790;2024-01-16T11:33:43;100339.75;;;0.68;84.22
78407;BME280;67692;51.074;-1.790;2024-01-16T11:36:47;100331.16;;;0.70;84.56
78407;BME280;67692;51.074;-1.790;2024-01-16T11:39:19;100327.72;;;0.71;84.90
78407;BME280;67692;51.074;-1.790;2024-01-16T11:41:50;100315.00;;;0.71;84.65
78407;BME280;67692;51.074;-1.790;2024-01-16T11:44:43;100308.16;;;0.73;84.25
78407;BME280;67692;51.074;-1.790;2024-01-16T11:47:18;100309.81;;;0.74;85.39
78407;BME280;67692;51.074;-1.790;2024-01-16T11:49:46;100308.81;;;0.78;85.14
78407;BME280;67692;51.074;-1.790;2024-01-16T11:52:12;100301.72;;;0.86;84.93
78407;BME280;67692;51.074;-1.790;2024-01-16T11:54:39;100296.25;;;0.97;84.24
78407;BME280;67692;51.074;-1.790;2024-01-16T11:57:41;100295.97;;;1.05;84.16
78407;BME280;67692;51.074;-1.790;2024-01-16T12:00:20;100288.97;;;1.10;82.21
78407;BME280;67692;51.074;-1.790;2024-01-16T12:02:52;100268.25;;;1.19;82.28
78407;BME280;67692;51.074;-1.790;2024-01-16T12:05:19;100279.16;;;1.23;82.64
78407;BME280;67692;51.074;-1.790;2024-01-16T12:07:47;100270.38;;;1.30;83.19
78407;BME280;67692;51.074;-1.790;2024-01-16T12:10:15;100275.16;;;1.39;81.84
78407;BME280;67692;51.074;-1.790;2024-01-16T12:12:42;100264.00;;;1.41;82.16
78407;BME280;67692;51.074;-1.790;2024-01-16T12:15:14;100263.03;;;1.44;83.19
78407;BME280;67692;51.074;-1.790;2024-01-16T12:17:53;100257.13;;;1.43;83.21
78407;BME280;67692;51.074;-1.790;2024-01-16T12:20:21;100256.19;;;1.46;83.63
78407;BME280;67692;51.074;-1.790;2024-01-16T12:22:53;100255.19;;;1.50;83.25
78407;BME280;67692;51.074;-1.790;2024-01-16T12:25:20;100249.75;;;1.58;80.78
78407;BME280;67692;51.074;-1.790;2024-01-16T12:27:54;100242.78;;;1.63;82.12
78407;BME280;67692;51.074;-1.790;2024-01-16T12:30:23;100237.41;;;1.69;82.94
78407;BME280;67692;51.074;-1.790;2024-01-16T12:32:52;100236.47;;;1.71;83.24
78407;BME280;67692;51.074;-1.790;2024-01-16T12:35:20;100228.72;;;1.74;83.36
78407;BME280;67692;51.074;-1.790;2024-01-16T12:37:58;100219.97;;;1.80;82.97
78407;BME280;67692;51.074;-1.790;2024-01-16T12:40:25;100217.22;;;1.85;82.70
78407;BME280;67692;51.074;-1.790;2024-01-16T12:42:52;100222.09;;;1.91;81.79
78407;BME280;67692;51.074;-1.790;2024-01-16T12:45:19;100223.69;;;1.93;82.67